Terminal Aerodrome Forecast
Issued by NWS Boston, MA

Home | Current Version | Previous Version | Text Only | Print | Product List | Glossary On
Versions: 1 2 3 4 5 6 7 8 9 10 11 12 13 14 15 16 17 18 19 20
000
FTUS41 KBOX 230543
TAFORH
TAF
KORH 230543Z 2306/2406 02015G25KT 2SM +SHRA BR VCTS OVC005CB
      WS020/04045KT
     FM230900 01016G29KT 3SM -SHRA BR OVC005
     FM231500 02015G30KT 5SM -SHRA BR OVC008
     FM231900 01013G27KT P6SM OVC008
     FM240000 36012G25KT 6SM BR OVC015
     FM240300 35012G23KT 6SM BR OVC025=

USA.gov is the U.S. government's official web portal to all federal, state and local government web resources and services.